Time;durP1;ratioP1;P1;durP2;ratioP2;P2;SDS_P1;SDS_P2;PMS_P1;PMS_P2;Temp;Humidity;BMP_temperature;BMP_pressure;BME280_temperature;BME280_humidity;BME280_pressure;Samples;Min_cycle;Max_cycle;Signal;HPM_P1;HPM_P2
2021/05/07 00:01:00;;;;;;;8.57;5.80;;;3.40;99.90;;;;;;5004516;28;20042;-62
2021/05/07 00:03:27;;;;;;;11.57;6.03;;;3.40;99.90;;;;;;5005526;28;20042;-62
2021/05/07 00:05:57;;;;;;;7.28;5.15;;;3.40;99.90;;;;;;5004085;28;20038;-62
2021/05/07 00:08:26;;;;;;;10.00;6.80;;;3.30;99.90;;;;;;5004404;28;20042;-62
2021/05/07 00:10:53;;;;;;;11.88;6.05;;;3.40;99.90;;;;;;5004426;28;20081;-62
2021/05/07 00:13:20;;;;;;;12.82;6.70;;;3.40;99.90;;;;;;5005316;28;20045;-62
2021/05/07 00:15:45;;;;;;;8.23;5.80;;;3.40;99.90;;;;;;5001706;28;20038;-62
2021/05/07 00:18:11;;;;;;;11.02;5.97;;;3.40;99.90;;;;;;5004246;28;20049;-62
2021/05/07 00:20:37;;;;;;;8.63;6.45;;;3.40;99.90;;;;;;5004581;28;20056;-63
2021/05/07 00:23:03;;;;;;;9.02;5.90;;;3.50;99.90;;;;;;5019501;28;20129;-63
2021/05/07 00:25:30;;;;;;;12.77;7.00;;;3.50;99.90;;;;;;5004209;28;20062;-62
2021/05/07 00:28:04;;;;;;;11.10;7.80;;;3.50;99.90;;;;;;5005088;28;20209;-63
2021/05/07 00:30:30;;;;;;;7.05;5.60;;;3.50;99.90;;;;;;5002898;28;20046;-63
2021/05/07 00:32:56;;;;;;;8.43;6.07;;;3.50;99.90;;;;;;4997011;28;20551;-63
2021/05/07 00:35:23;;;;;;;9.88;6.18;;;3.50;99.90;;;;;;5004040;28;20049;-63
2021/05/07 00:37:49;;;;;;;10.48;6.40;;;3.50;99.90;;;;;;5004178;28;20070;-62
2021/05/07 00:40:15;;;;;;;9.40;6.55;;;3.50;99.90;;;;;;5003959;28;20074;-61
2021/05/07 00:42:42;;;;;;;11.73;6.50;;;3.50;99.90;;;;;;5004444;28;20101;-62
2021/05/07 00:45:10;;;;;;;12.20;6.03;;;3.50;99.90;;;;;;5004325;28;20084;-61
2021/05/07 00:47:56;;;;;;;12.27;5.75;;;3.50;99.90;;;;;;5004749;28;20042;-61
2021/05/07 00:50:25;;;;;;;10.63;5.85;;;3.40;99.90;;;;;;5000747;28;20043;-61
2021/05/07 00:52:53;;;;;;;10.82;5.57;;;3.40;99.90;;;;;;5004599;28;20057;-62
2021/05/07 00:55:19;;;;;;;;;;;3.40;99.90;;;;;;5004058;28;20045;-61
2021/05/07 00:57:45;;;;;;;9.35;6.32;;;3.40;99.90;;;;;;5004060;28;19922;-60
2021/05/07 01:00:11;;;;;;;6.72;5.00;;;3.40;99.90;;;;;;5004177;28;20500;-62
2021/05/07 01:02:37;;;;;;;10.27;5.15;;;3.40;99.90;;;;;;5004109;28;20053;-62
2021/05/07 01:05:05;;;;;;;7.47;5.55;;;3.40;99.90;;;;;;5004571;28;20417;-61
2021/05/07 01:07:31;;;;;;;10.00;5.78;;;3.30;99.90;;;;;;4993632;28;20085;-61
2021/05/07 01:09:57;;;;;;;7.63;5.20;;;3.30;99.90;;;;;;5002443;28;20050;-61
2021/05/07 01:12:23;;;;;;;7.78;4.18;;;3.30;99.90;;;;;;4994735;28;20113;-61
2021/05/07 01:15:10;;;;;;;12.60;6.03;;;3.30;99.90;;;;;;5000712;28;20121;-61
2021/05/07 01:18:05;;;;;;;11.60;5.68;;;3.30;99.90;;;;;;5004051;28;20046;-62
2021/05/07 01:20:32;;;;;;;8.30;5.25;;;3.20;99.90;;;;;;4999103;28;20077;-61
2021/05/07 01:23:08;;;;;;;6.90;4.55;;;3.20;99.90;;;;;;5007035;28;20046;-62
2021/05/07 01:25:39;;;;;;;14.00;5.75;;;3.30;99.90;;;;;;4998274;28;20117;-62
2021/05/07 01:28:08;;;;;;;5.78;4.70;;;3.30;99.90;;;;;;5003540;28;20057;-61
2021/05/07 01:30:42;;;;;;;10.20;4.93;;;3.30;99.90;;;;;;4995946;28;20046;-61
2021/05/07 01:33:13;;;;;;;8.25;4.78;;;3.40;99.90;;;;;;5003531;28;20056;-61
2021/05/07 01:35:42;;;;;;;8.90;3.80;;;3.40;99.90;;;;;;5003778;28;20128;-60
2021/05/07 01:38:14;;;;;;;7.05;5.05;;;3.40;99.90;;;;;;4998497;28;20053;-61
2021/05/07 01:40:45;;;;;;;10.50;4.45;;;3.40;99.90;;;;;;5002394;28;20041;-61
2021/05/07 01:43:13;;;;;;;6.07;4.22;;;3.40;99.90;;;;;;5003311;28;20046;-61
2021/05/07 01:45:41;;;;;;;5.75;4.50;;;3.50;99.90;;;;;;5003570;28;20046;-61
2021/05/07 01:48:08;;;;;;;7.43;4.68;;;3.50;99.90;;;;;;5003737;28;20097;-60
2021/05/07 01:50:36;;;;;;;7.75;5.05;;;3.50;99.90;;;;;;5003179;28;20053;-62
2021/05/07 01:53:03;;;;;;;8.02;4.78;;;3.40;99.90;;;;;;4999982;28;20101;-61
2021/05/07 01:55:38;;;;;;;7.47;5.47;;;3.40;99.90;;;;;;4996108;28;20046;-61
2021/05/07 01:58:06;;;;;;;5.07;4.40;;;3.40;99.90;;;;;;5002148;28;20428;-61
2021/05/07 02:00:32;;;;;;;7.63;4.13;;;3.40;99.90;;;;;;5003110;28;20505;-61
2021/05/07 02:03:05;;;;;;;7.68;5.53;;;3.40;99.90;;;;;;5003775;28;20050;-61
2021/05/07 02:05:34;;;;;;;7.07;4.38;;;3.40;99.90;;;;;;5001803;28;20057;-61
2021/05/07 02:08:01;;;;;;;9.45;3.58;;;3.40;99.90;;;;;;4998596;28;20129;-62
2021/05/07 02:10:28;;;;;;;3.83;2.85;;;3.30;99.90;;;;;;4993791;28;20058;-62
2021/05/07 02:12:55;;;;;;;4.15;2.53;;;3.20;99.90;;;;;;5003317;28;20502;-62
2021/05/07 02:15:22;;;;;;;3.20;2.20;;;3.20;99.90;;;;;;5003796;28;20050;-62
2021/05/07 02:17:48;;;;;;;1.67;1.58;;;3.10;99.90;;;;;;5003062;28;20410;-62
2021/05/07 02:20:16;;;;;;;4.75;1.88;;;3.10;99.90;;;;;;5005675;28;20193;-61
2021/05/07 02:22:43;;;;;;;2.08;1.40;;;3.10;99.90;;;;;;5004304;28;20123;-62
2021/05/07 02:25:10;;;;;;;2.40;1.40;;;3.10;99.90;;;;;;5002178;28;20042;-62
2021/05/07 02:27:36;;;;;;;1.37;1.10;;;3.10;99.90;;;;;;5007109;28;20098;-62
2021/05/07 02:30:04;;;;;;;1.30;1.08;;;3.10;99.90;;;;;;5006921;28;20308;-62
2021/05/07 02:32:29;;;;;;;1.17;1.00;;;3.10;99.90;;;;;;5006481;28;20050;-62
2021/05/07 02:34:55;;;;;;;1.50;1.08;;;3.10;99.90;;;;;;4995852;28;20410;-62
2021/05/07 02:37:21;;;;;;;1.50;1.25;;;3.10;99.90;;;;;;5007452;28;20035;-62
2021/05/07 02:39:47;;;;;;;2.72;0.95;;;3.20;99.90;;;;;;5006202;28;20058;-62
2021/05/07 02:42:12;;;;;;;1.55;1.15;;;3.20;99.90;;;;;;5006095;28;20042;-62
2021/05/07 02:44:38;;;;;;;1.80;1.38;;;3.20;99.90;;;;;;5006830;28;20470;-62
2021/05/07 02:47:04;;;;;;;1.50;1.23;;;3.30;99.90;;;;;;5005428;28;20106;-62
2021/05/07 02:49:31;;;;;;;1.10;1.00;;;3.20;99.90;;;;;;4993846;28;20085;-62
2021/05/07 02:51:57;;;;;;;1.30;1.20;;;3.30;99.90;;;;;;5006791;28;20130;-62
2021/05/07 02:54:23;;;;;;;1.58;1.30;;;3.30;99.90;;;;;;5002757;28;20061;-61
2021/05/07 02:56:49;;;;;;;2.42;1.50;;;3.30;99.90;;;;;;4994775;28;20050;-62
2021/05/07 02:59:16;;;;;;;2.17;1.20;;;3.30;99.90;;;;;;5006530;28;20073;-61
2021/05/07 03:01:42;;;;;;;3.38;1.35;;;3.30;99.90;;;;;;5006470;28;20053;-62
2021/05/07 03:04:08;;;;;;;2.80;1.30;;;3.30;99.90;;;;;;5001420;28;20120;-62
2021/05/07 03:06:34;;;;;;;1.30;1.17;;;3.30;99.90;;;;;;5005427;28;20164;-61
2021/05/07 03:09:00;;;;;;;4.53;1.20;;;3.30;99.90;;;;;;5006361;28;20111;-61
2021/05/07 03:11:26;;;;;;;4.75;1.70;;;3.30;99.90;;;;;;5005413;28;20050;-62
2021/05/07 03:13:53;;;;;;;5.90;1.77;;;3.40;99.90;;;;;;5000321;28;20051;-62
2021/05/07 03:16:21;;;;;;;2.15;1.40;;;3.40;99.90;;;;;;5005414;28;20053;-62
2021/05/07 03:18:48;;;;;;;3.25;1.95;;;3.40;99.90;;;;;;5000957;28;20051;-62
2021/05/07 03:21:14;;;;;;;5.03;2.20;;;3.40;99.90;;;;;;4992150;28;20521;-62
2021/05/07 03:23:40;;;;;;;5.10;1.90;;;3.50;99.90;;;;;;5006177;28;20039;-62
2021/05/07 03:26:06;;;;;;;5.05;2.80;;;3.40;99.90;;;;;;5004792;28;20056;-62
2021/05/07 03:28:33;;;;;;;2.72;1.90;;;3.40;99.90;;;;;;5006008;28;20069;-62
2021/05/07 03:30:59;;;;;;;4.85;2.20;;;3.50;99.90;;;;;;5004657;28;20117;-62
2021/05/07 03:33:25;;;;;;;2.72;1.75;;;3.50;99.90;;;;;;5005959;28;20050;-62
2021/05/07 03:35:50;;;;;;;2.60;1.50;;;3.50;99.90;;;;;;4998888;28;20391;-61
2021/05/07 03:38:16;;;;;;;4.70;1.92;;;3.50;99.90;;;;;;4992038;28;20117;-62
2021/05/07 03:40:42;;;;;;;3.25;1.48;;;3.50;99.90;;;;;;5005194;28;20053;-62
2021/05/07 03:43:08;;;;;;;3.40;1.40;;;3.50;99.90;;;;;;5005235;28;20102;-62
2021/05/07 03:45:33;;;;;;;6.05;1.60;;;3.50;99.90;;;;;;4997978;28;20352;-62
2021/05/07 03:47:59;;;;;;;3.35;1.50;;;3.60;99.90;;;;;;4993602;28;20054;-62
2021/05/07 03:50:25;;;;;;;4.13;1.85;;;3.60;99.90;;;;;;5005265;28;20057;-61
2021/05/07 03:52:51;;;;;;;3.63;1.88;;;3.60;99.90;;;;;;5004769;28;20048;-61
2021/05/07 03:55:18;;;;;;;3.97;1.70;;;3.50;99.90;;;;;;4997251;28;20105;-61
2021/05/07 03:57:43;;;;;;;3.13;1.33;;;3.60;99.90;;;;;;5003000;28;20073;-61
2021/05/07 04:00:11;;;;;;;3.53;1.70;;;3.50;99.90;;;;;;4995529;28;20054;-62
2021/05/07 04:02:39;;;;;;;3.28;1.40;;;3.60;99.90;;;;;;5003804;28;20069;-62
2021/05/07 04:05:05;;;;;;;1.73;1.33;;;3.60;99.90;;;;;;5005124;28;20047;-62
2021/05/07 04:07:31;;;;;;;2.03;1.05;;;3.60;99.90;;;;;;5003049;28;20038;-62
2021/05/07 04:10:12;;;;;;;5.95;1.58;;;3.60;99.90;;;;;;4996217;28;20073;-62
2021/05/07 04:15:12;;;;;;;3.67;1.70;;;3.70;99.90;;;;;;4995929;28;20057;-61
2021/05/07 04:17:38;;;;;;;4.13;1.83;;;3.70;99.90;;;;;;5003496;28;20042;-62
2021/05/07 04:20:05;;;;;;;3.05;1.58;;;3.70;99.90;;;;;;5003953;28;20075;-61
2021/05/07 04:22:31;;;;;;;2.33;1.65;;;3.70;99.90;;;;;;5018165;28;20043;-61
2021/05/07 04:24:57;;;;;;;1.98;1.30;;;3.60;99.90;;;;;;5003776;28;20054;-62
2021/05/07 04:27:23;;;;;;;2.70;1.60;;;3.60;99.90;;;;;;5004411;28;20046;-62
2021/05/07 04:29:49;;;;;;;3.55;1.67;;;3.50;99.90;;;;;;5003989;28;20061;-62
2021/05/07 04:32:15;;;;;;;2.53;1.45;;;3.50;99.90;;;;;;5002649;28;20064;-62
2021/05/07 04:34:40;;;;;;;2.47;1.55;;;3.50;99.90;;;;;;5003536;28;20061;-62
2021/05/07 04:37:06;;;;;;;2.75;1.42;;;3.40;99.90;;;;;;5004361;28;20518;-62
2021/05/07 04:39:32;;;;;;;2.45;1.52;;;3.40;99.90;;;;;;5003133;28;20057;-62
2021/05/07 04:41:58;;;;;;;1.85;1.40;;;3.40;99.90;;;;;;5004084;28;20530;-62
2021/05/07 04:44:23;;;;;;;3.05;1.45;;;3.40;99.90;;;;;;5003065;28;20046;-62
2021/05/07 04:46:49;;;;;;;1.33;1.20;;;3.40;99.90;;;;;;5004132;28;20046;-62
2021/05/07 04:49:15;;;;;;;1.95;1.13;;;3.40;99.90;;;;;;4999911;28;20102;-62
2021/05/07 04:51:41;;;;;;;1.88;1.23;;;3.50;99.90;;;;;;4992583;28;20046;-62
2021/05/07 04:54:06;;;;;;;2.60;1.40;;;3.50;99.90;;;;;;5001804;28;20050;-62
2021/05/07 04:56:32;;;;;;;2.42;1.30;;;3.50;99.90;;;;;;5002914;28;20046;-62
2021/05/07 04:58:58;;;;;;;3.25;1.75;;;3.60;99.90;;;;;;4995294;28;20046;-62
2021/05/07 05:01:25;;;;;;;2.50;1.40;;;3.70;99.90;;;;;;5003396;28;20046;-61
2021/05/07 05:03:51;;;;;;;2.75;1.88;;;3.70;99.90;;;;;;4995572;28;20049;-62
2021/05/07 05:06:17;;;;;;;3.88;1.30;;;3.70;99.90;;;;;;5003429;28;20057;-62
2021/05/07 05:08:42;;;;;;;2.25;1.33;;;3.70;99.90;;;;;;5003935;28;20100;-62
2021/05/07 05:11:08;;;;;;;1.63;1.27;;;3.70;99.90;;;;;;5002999;28;20042;-62
2021/05/07 05:13:34;;;;;;;1.20;1.10;;;3.70;99.90;;;;;;5003269;28;20057;-62
2021/05/07 05:16:00;;;;;;;2.72;1.17;;;3.70;99.90;;;;;;5002883;28;20054;-62
2021/05/07 05:18:27;;;;;;;1.30;1.00;;;3.80;99.90;;;;;;4996960;28;20051;-62
2021/05/07 05:20:59;;;;;;;3.00;0.80;;;4.00;99.90;;;;;;5000466;28;20042;-62
2021/05/07 05:23:26;;;;;;;1.67;0.80;;;4.40;99.90;;;;;;5002897;28;20121;-64
2021/05/07 05:25:52;;;;;;;3.03;1.55;;;4.60;99.90;;;;;;4997709;28;20061;-63
2021/05/07 05:28:19;;;;;;;1.00;0.90;;;4.80;99.90;;;;;;5001881;28;20413;-63
2021/05/07 05:30:45;;;;;;;2.97;1.30;;;4.90;99.90;;;;;;5002748;28;20046;-62
2021/05/07 05:33:11;;;;;;;1.65;1.02;;;5.10;99.90;;;;;;5002142;28;20112;-62
2021/05/07 05:35:37;;;;;;;1.88;1.08;;;5.10;99.90;;;;;;5002961;28;20054;-61
2021/05/07 05:38:04;;;;;;;1.80;1.00;;;5.10;99.90;;;;;;5002371;28;20042;-62
2021/05/07 05:40:30;;;;;;;0.82;0.68;;;5.10;99.90;;;;;;4995864;28;20070;-62
2021/05/07 05:42:56;;;;;;;1.85;0.80;;;5.10;99.90;;;;;;5002000;28;20337;-63
2021/05/07 05:45:24;;;;;;;2.50;1.30;;;5.10;99.90;;;;;;5002569;28;20043;-63
2021/05/07 05:48:04;;;;;;;1.75;1.05;;;5.10;99.90;;;;;;5002993;28;20081;-63
2021/05/07 05:50:34;;;;;;;1.60;1.00;;;5.20;99.90;;;;;;5000787;28;20073;-62
2021/05/07 05:53:00;;;;;;;2.75;1.20;;;5.30;99.90;;;;;;5000917;28;20057;-63
2021/05/07 05:55:26;;;;;;;2.17;1.40;;;5.40;99.90;;;;;;5006282;28;20066;-63
2021/05/07 05:57:52;;;;;;;1.95;1.30;;;5.50;99.90;;;;;;5007535;28;20401;-63
2021/05/07 06:00:20;;;;;;;3.08;1.55;;;5.50;99.90;;;;;;5007741;28;20050;-63
2021/05/07 06:02:45;;;;;;;3.58;1.50;;;5.70;99.90;;;;;;5009580;28;20042;-63
2021/05/07 06:05:12;;;;;;;4.43;2.90;;;5.60;99.90;;;;;;5006823;28;20418;-63
2021/05/07 06:07:39;;;;;;;2.83;1.67;;;5.60;99.90;;;;;;5001820;28;20053;-64
2021/05/07 06:10:06;;;;;;;3.67;1.73;;;5.50;99.90;;;;;;5000764;28;20316;-63
2021/05/07 06:12:33;;;;;;;2.85;2.00;;;5.50;99.90;;;;;;5009638;28;20042;-64
2021/05/07 06:14:58;;;;;;;3.28;1.95;;;5.60;99.90;;;;;;5008683;28;20052;-63
2021/05/07 06:17:24;;;;;;;4.03;2.00;;;5.70;99.90;;;;;;5007807;28;20074;-63
2021/05/07 06:19:50;;;;;;;2.13;1.55;;;5.80;99.90;;;;;;4999396;28;20085;-64
2021/05/07 06:22:16;;;;;;;4.57;1.90;;;5.90;99.90;;;;;;5001626;28;20058;-62
2021/05/07 06:24:42;;;;;;;6.53;2.00;;;6.00;99.90;;;;;;5004175;28;20070;-63
2021/05/07 06:27:07;;;;;;;3.80;1.92;;;6.20;99.90;;;;;;5004280;28;20046;-64
2021/05/07 06:29:34;;;;;;;6.72;1.55;;;6.30;99.90;;;;;;5005262;28;20046;-62
2021/05/07 06:32:00;;;;;;;3.55;1.40;;;6.50;99.90;;;;;;5010015;28;20058;-62
2021/05/07 06:34:26;;;;;;;5.13;1.58;;;6.40;99.90;;;;;;5001729;28;20097;-63
2021/05/07 06:36:52;;;;;;;3.63;1.63;;;6.50;99.90;;;;;;5007685;28;20098;-63
2021/05/07 06:39:17;;;;;;;4.72;1.60;;;6.70;99.90;;;;;;5005495;28;20051;-63
2021/05/07 06:41:43;;;;;;;3.58;2.13;;;6.70;99.90;;;;;;5004666;28;20053;-63
2021/05/07 06:44:09;;;;;;;2.67;1.65;;;6.80;99.90;;;;;;5005500;28;20081;-63
2021/05/07 06:46:35;;;;;;;4.88;1.60;;;6.80;99.90;;;;;;5004788;28;20442;-62
2021/05/07 06:49:01;;;;;;;1.92;1.42;;;6.80;99.90;;;;;;5005563;28;20751;-63
2021/05/07 06:51:27;;;;;;;1.83;1.35;;;6.90;99.90;;;;;;5003522;28;20053;-62
2021/05/07 06:53:54;;;;;;;1.75;1.38;;;6.90;99.90;;;;;;5004460;28;20054;-62
2021/05/07 06:56:21;;;;;;;2.85;1.45;;;7.00;99.90;;;;;;4998169;28;20391;-63
2021/05/07 06:58:50;;;;;;;3.97;1.87;;;7.30;99.90;;;;;;4997024;28;20145;-63
2021/05/07 07:01:16;;;;;;;7.95;1.92;;;7.20;99.90;;;;;;5001929;28;20061;-62
2021/05/07 07:03:42;;;;;;;3.50;1.20;;;7.20;99.90;;;;;;5010501;28;20050;-63
2021/05/07 07:06:09;;;;;;;7.20;1.80;;;7.20;99.90;;;;;;4999609;28;20047;-63
2021/05/07 07:08:35;;;;;;;2.40;1.70;;;7.20;99.90;;;;;;5000243;28;20038;-63
2021/05/07 07:11:01;;;;;;;5.20;1.45;;;7.50;99.90;;;;;;4997429;28;20050;-62
2021/05/07 07:13:27;;;;;;;2.10;1.55;;;7.50;99.90;;;;;;5004548;28;20066;-62
2021/05/07 07:15:53;;;;;;;5.32;1.80;;;7.70;99.90;;;;;;5003828;28;20097;-63
2021/05/07 07:18:20;;;;;;;8.18;1.67;;;7.80;99.90;;;;;;5001710;28;20046;-63
2021/05/07 07:20:47;;;;;;;3.10;1.52;;;7.90;99.90;;;;;;5004294;28;20319;-63
2021/05/07 07:23:13;;;;;;;4.72;2.42;;;7.70;99.90;;;;;;5003495;28;20056;-63
2021/05/07 07:25:39;;;;;;;2.47;1.42;;;7.90;99.90;;;;;;5000078;28;20117;-62
2021/05/07 07:28:06;;;;;;;4.82;1.85;;;7.80;99.90;;;;;;4996490;28;20109;-63
2021/05/07 07:30:32;;;;;;;3.50;1.63;;;7.80;99.90;;;;;;4992439;28;20054;-62
2021/05/07 07:33:00;;;;;;;2.28;1.63;;;7.70;99.90;;;;;;4996620;28;20045;-65
2021/05/07 07:35:26;;;;;;;9.25;2.33;;;7.80;99.90;;;;;;4994645;28;20061;-62
2021/05/07 07:37:52;;;;;;;3.67;1.70;;;7.80;99.90;;;;;;5000467;28;20038;-63
2021/05/07 07:40:18;;;;;;;3.65;1.63;;;7.90;99.90;;;;;;4999219;28;20085;-63
2021/05/07 07:42:44;;;;;;;3.38;1.30;;;8.00;99.90;;;;;;4999213;28;20045;-62
2021/05/07 07:45:12;;;;;;;3.92;1.60;;;8.10;99.90;;;;;;5000010;28;20046;-63
2021/05/07 07:47:38;;;;;;;5.28;1.20;;;8.40;99.90;;;;;;4998757;28;20066;-62
2021/05/07 07:50:06;;;;;;;5.63;1.70;;;8.30;99.90;;;;;;4997686;28;20046;-62
2021/05/07 07:52:32;;;;;;;4.28;1.80;;;8.30;99.90;;;;;;4997454;28;20050;-62
2021/05/07 07:55:03;;;;;;;3.83;1.67;;;8.30;99.90;;;;;;4991094;28;20038;-63
2021/05/07 07:57:29;;;;;;;2.97;2.03;;;8.20;99.90;;;;;;4995911;28;20094;-61
2021/05/07 07:59:55;;;;;;;6.93;2.17;;;8.20;99.90;;;;;;4995890;28;20046;-63
2021/05/07 08:02:21;;;;;;;4.60;2.10;;;8.30;99.90;;;;;;4997276;28;20038;-63
2021/05/07 08:04:47;;;;;;;5.95;2.13;;;8.40;99.90;;;;;;5003208;28;20089;-64
2021/05/07 08:07:13;;;;;;;3.47;2.08;;;8.20;99.90;;;;;;5002641;28;20046;-62
2021/05/07 08:09:39;;;;;;;3.05;1.95;;;8.50;99.90;;;;;;4999758;28;20081;-63
2021/05/07 08:12:06;;;;;;;4.50;2.22;;;8.50;99.90;;;;;;5003889;28;20062;-64
2021/05/07 08:14:32;;;;;;;2.67;2.17;;;8.60;99.90;;;;;;5005002;28;20053;-64
2021/05/07 08:16:58;;;;;;;1.92;1.75;;;8.80;99.90;;;;;;4994751;28;20047;-64
2021/05/07 08:19:23;;;;;;;7.97;2.85;;;8.90;99.90;;;;;;5004650;28;20050;-64
2021/05/07 08:21:50;;;;;;;2.97;2.00;;;8.80;99.90;;;;;;5005073;28;20081;-64
2021/05/07 08:24:16;;;;;;;5.40;2.10;;;9.00;99.90;;;;;;5000927;28;20046;-65
2021/05/07 08:26:42;;;;;;;3.95;2.63;;;9.40;99.90;;;;;;4997540;28;20057;-64
2021/05/07 08:29:08;;;;;;;3.88;1.90;;;9.60;99.90;;;;;;5001667;28;20050;-64
2021/05/07 08:31:34;;;;;;;3.45;1.40;;;9.30;99.90;;;;;;5004368;28;20042;-64
2021/05/07 08:34:00;;;;;;;2.17;1.45;;;9.10;99.90;;;;;;5004869;28;20050;-64
2021/05/07 08:36:26;;;;;;;4.88;1.10;;;8.90;99.90;;;;;;5004455;28;20065;-65
2021/05/07 08:38:52;;;;;;;4.47;1.15;;;8.60;99.90;;;;;;5005048;28;20047;-64
2021/05/07 08:41:18;;;;;;;4.60;2.03;;;8.90;99.90;;;;;;5004049;28;20383;-63
2021/05/07 08:43:44;;;;;;;1.90;1.08;;;8.90;98.50;;;;;;5003245;28;20046;-63
2021/05/07 08:46:10;;;;;;;3.53;1.67;;;9.20;99.90;;;;;;5001888;28;20045;-65
2021/05/07 08:48:38;;;;;;;3.85;1.25;;;9.40;99.90;;;;;;5004648;28;20302;-64
2021/05/07 08:51:05;;;;;;;1.70;1.00;;;9.60;99.60;;;;;;5004739;28;20363;-65
2021/05/07 08:53:31;;;;;;;4.47;1.00;;;9.50;97.20;;;;;;5004706;28;20045;-64
2021/05/07 08:56:03;;;;;;;2.25;0.90;;;9.10;96.70;;;;;;5003929;28;20050;-64
2021/05/07 08:58:29;;;;;;;3.20;1.20;;;9.10;97.70;;;;;;5001666;28;20047;-66
2021/05/07 09:00:55;;;;;;;1.58;0.95;;;9.20;98.30;;;;;;5004457;28;20053;-64
2021/05/07 09:03:21;;;;;;;8.23;1.30;;;9.10;95.70;;;;;;5001630;28;20117;-64
2021/05/07 09:05:47;;;;;;;1.52;0.75;;;9.40;96.90;;;;;;5003937;28;20386;-65
2021/05/07 09:08:13;;;;;;;4.25;1.33;;;9.40;95.50;;;;;;5000934;28;20050;-65
2021/05/07 09:10:42;;;;;;;1.48;0.95;;;9.50;96.80;;;;;;5003557;28;20046;-64
2021/05/07 09:13:10;;;;;;;3.28;1.17;;;9.30;95.30;;;;;;5004211;28;20436;-65
2021/05/07 09:15:44;;;;;;;2.40;1.00;;;9.10;95.30;;;;;;5004088;28;20046;-64
2021/05/07 09:18:15;;;;;;;5.55;1.20;;;9.30;96.00;;;;;;5004121;28;20506;-66
2021/05/07 09:20:42;;;;;;;0.98;0.80;;;9.60;96.30;;;;;;5003607;28;20080;-64
2021/05/07 09:23:13;;;;;;;5.10;0.90;;;9.70;97.40;;;;;;5003768;28;20042;-65
2021/05/07 09:25:41;;;;;;;2.97;1.00;;;9.40;97.00;;;;;;5003428;28;20077;-64
2021/05/07 09:28:06;;;;;;;;;;;9.20;96.90;;;;;;5000472;28;20124;-65
2021/05/07 09:30:32;;;;;;;1.10;0.70;;;9.50;96.20;;;;;;5003441;28;19922;-64
2021/05/07 09:32:59;;;;;;;3.45;1.40;;;9.60;96.50;;;;;;5003094;28;20042;-65
2021/05/07 09:35:29;;;;;;;2.33;0.88;;;9.60;97.00;;;;;;5004009;28;20053;-65
2021/05/07 09:38:16;;;;;;;4.47;1.42;;;9.40;97.00;;;;;;4999885;28;20049;-65
2021/05/07 09:40:43;;;;;;;2.17;0.80;;;9.30;97.50;;;;;;4993457;28;20492;-66
2021/05/07 09:43:20;;;;;;;3.42;1.13;;;9.50;97.10;;;;;;4999092;28;20046;-66
2021/05/07 09:45:50;;;;;;;1.77;0.82;;;9.90;98.50;;;;;;5003681;28;20050;-66
2021/05/07 09:48:20;;;;;;;1.58;1.15;;;10.00;96.10;;;;;;5003481;28;20054;-66
2021/05/07 09:50:47;;;;;;;2.38;1.20;;;10.00;95.40;;;;;;5003162;28;20122;-66
2021/05/07 09:53:22;;;;;;;1.20;0.80;;;10.00;95.50;;;;;;5003395;28;20050;-66
2021/05/07 09:55:50;;;;;;;1.88;1.00;;;9.70;95.90;;;;;;5003041;28;20077;-66
2021/05/07 09:58:16;;;;;;;2.28;1.00;;;9.70;95.80;;;;;;5003998;28;20073;-66
2021/05/07 10:00:43;;;;;;;0.60;0.57;;;9.60;93.10;;;;;;5003470;28;20125;-67
2021/05/07 10:03:09;;;;;;;2.17;0.88;;;9.60;93.60;;;;;;5003669;28;20062;-66
2021/05/07 10:05:36;;;;;;;1.30;0.70;;;9.80;93.00;;;;;;5002904;28;20053;-68
2021/05/07 10:08:02;;;;;;;1.27;0.75;;;9.90;93.50;;;;;;5003927;28;20521;-67
2021/05/07 10:10:37;;;;;;;5.47;0.93;;;10.20;92.80;;;;;;5000830;28;20057;-67
2021/05/07 10:13:04;;;;;;;1.58;0.55;;;10.40;94.80;;;;;;5003733;28;20125;-65
2021/05/07 10:15:35;;;;;;;3.20;1.00;;;10.00;92.20;;;;;;5000838;28;20042;-67
2021/05/07 10:18:01;;;;;;;5.13;0.75;;;9.90;93.20;;;;;;4999539;28;20061;-65
2021/05/07 10:20:32;;;;;;;1.77;0.50;;;9.80;92.20;;;;;;4997419;28;20046;-66
2021/05/07 10:22:59;;;;;;;2.08;1.08;;;9.80;92.60;;;;;;5003759;28;20154;-67
2021/05/07 10:25:26;;;;;;;1.80;0.60;;;9.80;91.80;;;;;;5002871;28;20107;-66
2021/05/07 10:27:55;;;;;;;4.80;1.10;;;9.80;91.30;;;;;;5003285;28;20398;-65
2021/05/07 10:30:30;;;;;;;4.22;0.90;;;9.90;92.20;;;;;;5003012;28;20801;-66
2021/05/07 10:33:01;;;;;;;2.20;0.63;;;10.10;91.30;;;;;;5002959;28;20436;-67
2021/05/07 10:35:32;;;;;;;1.08;0.63;;;10.20;89.80;;;;;;5000737;28;20051;-66
2021/05/07 10:38:18;;;;;;;3.70;0.80;;;10.40;91.70;;;;;;5002741;28;20493;-67
2021/05/07 10:40:46;;;;;;;1.77;0.90;;;10.40;90.60;;;;;;4996340;28;20057;-66
2021/05/07 10:43:13;;;;;;;1.35;0.93;;;10.30;91.40;;;;;;5006691;28;20126;-66
2021/05/07 10:45:49;;;;;;;1.98;1.00;;;10.30;93.10;;;;;;5006548;28;20046;-67
2021/05/07 10:48:21;;;;;;;1.67;1.13;;;10.20;93.60;;;;;;5004878;28;20346;-66
2021/05/07 10:50:49;;;;;;;1.50;0.80;;;10.10;92.70;;;;;;4998714;28;20054;-67
2021/05/07 10:53:25;;;;;;;1.35;0.80;;;9.80;91.70;;;;;;5006654;28;20119;-67
2021/05/07 10:55:52;;;;;;;2.92;1.25;;;10.20;93.60;;;;;;5005064;28;20069;-67
2021/05/07 10:58:33;;;;;;;0.68;0.65;;;10.50;95.30;;;;;;5006810;28;20054;-67
2021/05/07 11:00:59;;;;;;;1.10;0.90;;;10.60;94.80;;;;;;5006258;28;20158;-67
2021/05/07 11:03:25;;;;;;;3.45;1.00;;;10.90;93.60;;;;;;5006263;28;20045;-67
2021/05/07 11:05:52;;;;;;;3.03;0.90;;;10.80;92.90;;;;;;5006500;28;20042;-67
2021/05/07 11:08:20;;;;;;;1.45;0.93;;;10.60;91.50;;;;;;5006409;28;20053;-67
2021/05/07 11:10:48;;;;;;;1.88;0.80;;;10.80;92.10;;;;;;5004848;28;20038;-66
2021/05/07 11:13:14;;;;;;;3.10;0.70;;;10.50;87.70;;;;;;5006747;28;20081;-67
2021/05/07 11:15:40;;;;;;;1.42;0.90;;;10.60;91.10;;;;;;5006068;28;20046;-67
2021/05/07 11:18:10;;;;;;;2.45;0.80;;;10.20;92.00;;;;;;5006653;28;20046;-67
2021/05/07 11:20:43;;;;;;;2.30;1.05;;;10.20;93.80;;;;;;5006133;28;20129;-67
2021/05/07 11:23:11;;;;;;;0.70;0.60;;;10.30;94.10;;;;;;5006335;28;20062;-67
2021/05/07 11:25:38;;;;;;;3.53;0.80;;;10.60;92.20;;;;;;5005436;28;20051;-67
2021/05/07 11:28:18;;;;;;;1.23;0.60;;;10.80;87.10;;;;;;5006045;28;20050;-67
2021/05/07 11:30:53;;;;;;;2.47;0.90;;;10.80;86.60;;;;;;5020733;28;20050;-68
2021/05/07 11:33:20;;;;;;;4.15;0.70;;;10.80;90.20;;;;;;5005550;28;20050;-68
2021/05/07 11:35:47;;;;;;;2.30;0.80;;;11.00;91.80;;;;;;5006593;28;20122;-68
2021/05/07 11:38:14;;;;;;;2.28;0.60;;;11.10;90.10;;;;;;4996528;28;20065;-68
2021/05/07 11:40:41;;;;;;;2.08;0.68;;;11.60;88.70;;;;;;5004829;28;20054;-67
2021/05/07 11:43:09;;;;;;;2.53;0.70;;;12.00;85.40;;;;;;4996566;28;20398;-66
2021/05/07 11:45:35;;;;;;;1.35;0.57;;;11.90;81.70;;;;;;5005813;28;20049;-66
2021/05/07 11:48:09;;;;;;;10.73;2.03;;;11.40;81.60;;;;;;5005800;28;20050;-67
2021/05/07 11:50:35;;;;;;;0.98;0.43;;;11.50;84.00;;;;;;5005779;28;20046;-67
2021/05/07 11:53:01;;;;;;;1.10;0.60;;;11.60;77.30;;;;;;4995146;28;20086;-67
2021/05/07 11:55:30;;;;;;;2.65;0.82;;;12.20;79.50;;;;;;5004912;28;20038;-67
2021/05/07 11:58:07;;;;;;;1.95;0.80;;;12.20;78.70;;;;;;5005666;28;20057;-67
2021/05/07 12:00:38;;;;;;;1.45;0.60;;;12.50;80.20;;;;;;5005368;28;20042;-67
2021/05/07 12:03:08;;;;;;;3.72;0.82;;;12.30;75.10;;;;;;5005833;28;20096;-67
2021/05/07 12:05:36;;;;;;;3.60;0.80;;;12.30;78.90;;;;;;5005094;28;20124;-67
2021/05/07 12:08:03;;;;;;;3.17;0.80;;;12.10;78.40;;;;;;5005338;28;20501;-67
2021/05/07 12:10:29;;;;;;;2.08;0.90;;;11.70;75.80;;;;;;5004509;28;20474;-67
2021/05/07 12:12:58;;;;;;;1.65;0.60;;;12.00;78.90;;;;;;5005272;28;20044;-67
2021/05/07 12:15:27;;;;;;;1.70;0.75;;;12.80;78.30;;;;;;4997905;28;20042;-67
2021/05/07 12:17:54;;;;;;;4.15;0.90;;;12.70;72.30;;;;;;5005111;28;20085;-67
2021/05/07 12:20:22;;;;;;;3.58;0.90;;;12.30;77.60;;;;;;5004784;28;20054;-67
2021/05/07 12:22:52;;;;;;;2.25;0.80;;;12.00;72.90;;;;;;5003974;28;20042;-66
2021/05/07 12:25:20;;;;;;;1.58;0.80;;;12.00;79.40;;;;;;5004282;28;20054;-67
2021/05/07 12:27:48;;;;;;;2.92;0.98;;;12.10;80.10;;;;;;5004752;28;20114;-66
2021/05/07 12:30:32;;;;;;;3.10;1.02;;;12.00;81.10;;;;;;5005188;28;20085;-66
2021/05/07 12:33:04;;;;;;;4.32;1.27;;;11.90;82.80;;;;;;5004726;28;20149;-67
2021/05/07 12:35:47;;;;;;;3.42;1.15;;;12.20;78.90;;;;;;5004733;28;20054;-68
2021/05/07 12:38:27;;;;;;;2.38;1.10;;;12.30;77.20;;;;;;5004759;28;20046;-67
2021/05/07 12:41:00;;;;;;;1.00;0.80;;;12.40;71.40;;;;;;5003644;28;20078;-66
2021/05/07 12:43:28;;;;;;;2.95;1.00;;;12.60;61.50;;;;;;5004989;28;20050;-68
2021/05/07 12:45:54;;;;;;;1.88;0.95;;;13.00;62.90;;;;;;5004904;28;20038;-67
2021/05/07 12:48:20;;;;;;;1.00;0.60;;;13.70;61.10;;;;;;5002888;28;20043;-66
2021/05/07 12:50:47;;;;;;;4.20;1.02;;;13.80;60.30;;;;;;4997789;28;20079;-66
2021/05/07 12:53:23;;;;;;;3.72;1.50;;;13.80;56.70;;;;;;5000499;28;20058;-66
2021/05/07 12:55:50;;;;;;;3.33;1.00;;;14.50;64.90;;;;;;5003561;28;20050;-67
2021/05/07 12:58:17;;;;;;;1.92;1.02;;;14.40;61.10;;;;;;5004228;28;20558;-67
2021/05/07 13:00:43;;;;;;;4.20;1.23;;;14.30;60.30;;;;;;5004392;28;20138;-68